Detalii statie AFILIU TRANS MIZIL [00001982]

Toti senzorii

Date Temperatura solului [C]Precipitatii [mm]Voltaj baterie [mV]Leaf Wetness [Min]HC Air temperature [C]HC Relative humidity [%]Punctul de roua [C]
medieminmaxsumaultimatimpmedieminmaxmediemediemin
2020-01-25 15:00:00 0 7216 9.61 8.88 10.57 29.33 -7.5 -8.7
2020-01-25 16:00:00 0 7216 9.24 8.89 9.51 29.35 -7.8 -8.6
2020-01-25 17:00:00 0 7176 7.6 6.3 9.31 35.76 -6.7 -7.2
2020-01-25 18:00:00 0 7070 4.72 2.8 6.13 44.1 -6.5 -7.5
2020-01-25 19:00:00 0 6972 3.8 2.3 4.87 47.55 -6.4 -7.2
2020-01-25 20:00:00 0 6914 0.38 -0.91 2.45 54.81 -7.6 -8.3
2020-01-25 21:00:00 0 6854 1.01 -0.6 3.01 49.8 -8.2 -9.1
2020-01-25 22:00:00 0 6844 -0.8 -1.65 0.86 53.36 -9.1 -9.7
2020-01-25 23:00:00 0 6844 -0.01 -1.68 1.02 54.19 -8.1 -9.1
2020-01-26 00:00:00 0 6834 -2.27 -2.81 -1.76 64.04 -8.1 -9
2020-01-26 01:00:00 0 6816 -2.4 -2.63 -1.88 69.25 -7.2 -7.7
2020-01-26 02:00:00 0 6834 -2.87 -3.19 -2.57 75.32 -6.5 -7.2
2020-01-26 03:00:00 0 6806 -2.64 -3.71 -2.13 76.74 -6.1 -7.2
2020-01-26 04:00:00 0 6826 -3.39 -5.09 -2.49 77.93 -6.6 -8
2020-01-26 05:00:00 0 6816 -5.11 -5.41 -4.97 84.21 -7.3 -7.8
2020-01-26 06:00:00 0 6806 -5.23 -5.66 -4.96 87.47 -6.9 -7.3
2020-01-26 07:00:00 0 6806 -5.29 -5.85 -4.82 87.81 -6.9 -7.5
2020-01-26 08:00:00 0 6748 -4.74 -5.49 -3.68 88.88 -6.1 -7.1
2020-01-26 09:00:00 0 6922 -1.21 -3.57 0.62 80.34 -4.1 -5.2
2020-01-26 10:00:00 0 7206 2.02 0.73 3.38 71.52 -2.6 -3.5
2020-01-26 11:00:00 0 7216 5.95 4.13 7.06 58.44 -1.6 -2.3
2020-01-26 12:00:00 0 7226 8.42 7.12 9.72 45.23 -2.8 -3.4
2020-01-26 13:00:00 0 7216 10.29 9.75 10.72 38.51 -3.3 -3.6
2020-01-26 14:00:00 0 7216 10.78 10.6 10.93 36.72 -3.5 -3.8
2020-01-26 15:00:00 0 7216 10.66 10.38 10.96 36.44 -3.7 -4.3
2020-01-26 16:00:00 0 7216 10.23 9.85 10.57 37.37 -3.7 -4
2020-01-26 17:00:00 0 7166 8.3 6.53 9.72 41.86 -3.9 -4.7
2020-01-26 18:00:00 0 7060 3.8 1.74 6.14 55.03 -4.5 -4.9
2020-01-26 19:00:00 0 6972 0.97 -0.04 2.16 65.13 -4.8 -5.7
2020-01-26 20:00:00 0 6914 -0.84 -1.84 -0.01 69.01 -5.7 -6.4
2020-01-26 21:00:00 0 6884 -1.94 -2.61 -1.32 73.02 -6 -6.6
2020-01-26 22:00:00 0 6884 -1.95 -2.34 -1.57 70.16 -6.5 -6.9
2020-01-26 23:00:00 0 6826 -2.12 -2.36 -1.75 70.8 -6.6 -7
2020-01-27 00:00:00 0 6806 -2.59 -3.12 -2.13 76.1 -6.1 -6.4
2020-01-27 01:00:00 0 6796 -3.41 -3.69 -3.15 79.65 -6.3 -6.6
2020-01-27 02:00:00 0 6816 -3.18 -3.69 -2.91 79.66 -6.1 -6.6
2020-01-27 03:00:00 0 6816 -3.69 -4.08 -3.4 80.88 -6.4 -7.2
2020-01-27 04:00:00 0 6806 -4.09 -4.47 -3.72 83.26 -6.4 -7.1
2020-01-27 05:00:00 0 6786 -2.88 -3.76 -2.12 86.96 -4.6 -5.7
2020-01-27 06:00:00 0 6806 -3.99 -4.51 -3.34 88.27 -5.5 -6.4
2020-01-27 07:00:00 0 6796 -4.69 -5.32 -3.98 90.22 -5.9 -6.6
2020-01-27 08:00:00 0 6766 -4.77 -5.04 -4.62 93.78 -5.5 -5.9
2020-01-27 09:00:00 0 7050 -2.87 -4.82 -0.29 96.51 -3.2 -5.4
2020-01-27 10:00:00 0 7206 1.79 0.11 3.45 82.26 -0.9 -1.5
2020-01-27 11:00:00 0 7226 5.64 3.93 6.66 67.78 0 -0.5
2020-01-27 12:00:00 0 7226 7.37 6.54 7.84 58.25 -0.3 -0.7
2020-01-27 13:00:00 0 7226 8.65 8.06 9.26 55.49 0.1 -0.2
2020-01-27 14:00:00 0 7216 9.55 9.18 9.75 53.6 0.4 0.1